NCAR-RAP Real-Time Weather Data

Output produced by METARs form (17 December 2018  13:55 UTC)
found at http://weather.rap.ucar.edu/surface/
 
RJAF 170700Z 23010KT 9999 VCSH FEW025 SCT040 07/M00 Q1004
RJAF 170600Z 25007KT 210V280 9999 VCSH FEW030 SCT050 10/M02 Q1003
RJAF 170500Z VRB02KT 9999 FEW030 SCT050 10/03 Q1003
RJAF 170400Z 35006KT 9999 FEW030 09/02 Q1003
RJAF 170300Z 36008KT 9999 FEW020 09/02 Q1004
RJAF 170200Z 15005KT 120V180 9999 FEW015 08/02 Q1005
RJAF 170100Z 12007KT 090V170 9999 FEW015 08/02 Q1007
RJAF 170000Z 19005KT 9999 FEW015 06/02 Q1008
RJAF 162330Z 17009KT 9999 FEW008 SCT/// 05/01 Q1008
RJAF 162310Z 16010KT 9999 FEW008 SCT120 BKN/// 04/01 Q1008 RMK 1ST008 3AC120 A2978
RJAF 160700Z 17017KT 9999 FEW040 BKN/// 07/M04 Q1017
RJAF 160600Z 18020KT 9999 FEW050 BKN/// 08/M04 Q1018
RJAF 160500Z 19021KT 9999 FEW050 BKN/// 09/M04 Q1018
RJAF 160400Z 18026KT 9999 FEW050 BKN/// 08/M04 Q1019
RJAF 160300Z 19018KT 9999 FEW035 BKN/// 08/M06 Q1019
RJAF 160200Z 13014KT 100V170 9999 FEW030 BKN/// 05/M03 Q1020
RJAF 160100Z 15016G26KT 9999 FEW030 SCT170 BKN/// 02/M04 Q1021
RJAF 160000Z 15016G26KT 9999 FEW030 BKN/// 01/M05 Q1022
RJAF 152330Z VRB03KT 9999 FEW030 BKN/// 00/M05 Q1022
RJAF 150700Z 34008KT 9999 FEW020 02/M08 Q1024
RJAF 150600Z 35005KT 9999 FEW040 03/M09 Q1024
RJAF 150500Z 33005KT 280V360 9999 FEW040 03/M08 Q1024
RJAF 150400Z VRB04KT 9999 FEW030 03/M10 Q1024
RJAF 150300Z VRB03KT 9999 FEW025 01/M09 Q1024
RJAF 150200Z 33003KT 250V060 9999 FEW025 M00/M07 Q1025